Time;durP1;ratioP1;P1;durP2;ratioP2;P2;SDS_P1;SDS_P2;PMS_P1;PMS_P2;Temp;Humidity;BMP_temperature;BMP_pressure;BME280_temperature;BME280_humidity;BME280_pressure;Samples;Min_cycle;Max_cycle;Signal;HPM_P1;HPM_P2
2024/04/02 00:01:26;;;;;;;0.10;0.10;;;;;;;17.25;57.27;100126.88;5073144;28;20032;-81
2024/04/02 00:03:52;;;;;;;0.20;0.20;;;;;;;17.33;57.46;100141.94;5090510;28;20484;-81
2024/04/02 00:06:17;;;;;;;0.10;0.10;;;;;;;17.28;57.13;100117.94;5089341;28;20513;-81
2024/04/02 00:08:43;;;;;;;0.10;0.10;;;;;;;17.25;57.31;100134.72;5072389;28;20036;-81
2024/04/02 00:11:08;;;;;;;0.10;0.10;;;;;;;17.18;57.96;100157.09;5089118;28;20029;-81
2024/04/02 00:13:34;;;;;;;0.13;0.13;;;;;;;17.10;58.22;100154.31;5089587;28;20478;-81
2024/04/02 00:16:00;;;;;;;0.20;0.20;;;;;;;16.83;58.81;100119.09;5089314;28;20024;-81
2024/04/02 00:18:25;;;;;;;0.10;0.10;;;;;;;16.98;58.88;100144.88;5089163;28;20081;-81
2024/04/02 00:20:52;;;;;;;0.10;0.10;;;;;;;16.87;59.07;100138.75;5072360;28;20509;-81
2024/04/02 00:23:17;;;;;;;0.20;0.20;;;;;;;16.85;59.31;100130.22;5055739;28;20030;-81
2024/04/02 00:25:43;;;;;;;0.20;0.20;;;;;;;16.63;59.65;100089.34;5071854;28;20056;-81
2024/04/02 00:28:11;;;;;;;0.10;0.10;;;;;;;16.70;60.31;100099.31;5072469;28;20481;-81
2024/04/02 00:30:36;;;;;;;0.10;0.10;;;;;;;16.61;60.21;100101.69;5089016;28;20036;-81
2024/04/02 00:33:02;;;;;;;0.13;0.13;;;;;;;16.50;60.88;100099.13;5072278;28;20032;-81
2024/04/02 00:35:28;;;;;;;0.20;0.20;;;;;;;16.54;60.92;100111.00;5090510;28;20032;-81
2024/04/02 00:37:54;;;;;;;0.13;0.13;;;;;;;16.60;60.79;100114.88;5072005;28;20039;-81
2024/04/02 00:40:19;;;;;;;0.10;0.10;;;;;;;16.59;60.17;100087.09;5090411;28;20024;-81
2024/04/02 00:42:45;;;;;;;0.10;0.10;;;;;;;16.46;61.00;100100.34;5089054;28;20486;-81
2024/04/02 00:45:11;;;;;;;0.10;0.10;;;;;;;16.46;61.05;100102.13;5072260;28;20028;-80
2024/04/02 00:47:37;;;;;;;0.20;0.20;;;;;;;16.44;60.46;100070.13;5055567;28;20064;-81
2024/04/02 00:50:06;;;;;;;0.10;0.10;;;;;;;16.40;60.85;100087.78;5055494;28;20047;-81
2024/04/02 00:52:31;;;;;;;0.10;0.10;;;;;;;16.43;61.60;100094.56;5072798;28;20478;-81
2024/04/02 00:54:57;;;;;;;0.10;0.10;;;;;;;16.24;61.50;100067.34;5088688;28;20024;-81
2024/04/02 00:57:23;;;;;;;0.10;0.10;;;;;;;16.33;61.08;100058.75;5072274;28;20028;-81
2024/04/02 00:59:48;;;;;;;0.10;0.10;;;;;;;16.45;61.58;100056.09;5088809;28;20107;-81
2024/04/02 01:02:14;;;;;;;0.10;0.10;;;;;;;16.51;60.45;100045.97;5089045;28;20028;-81
2024/04/02 01:04:40;;;;;;;0.10;0.10;;;;;;;16.40;60.60;100026.91;5089048;28;20032;-81
2024/04/02 01:07:06;;;;;;;0.10;0.10;;;;;;;16.43;60.46;100011.03;5088884;28;20060;-81
2024/04/02 01:09:31;;;;;;;0.20;0.20;;;;;;;16.55;59.92;100013.44;5089863;28;20470;-81
2024/04/02 01:11:57;;;;;;;0.20;0.20;;;;;;;16.42;61.12;100020.63;5059227;28;20521;-81
2024/04/02 01:14:23;;;;;;;0.10;0.10;;;;;;;16.31;62.66;100025.88;5092710;28;20477;-81
2024/04/02 01:16:48;;;;;;;0.10;0.10;;;;;;;16.23;61.90;99994.41;5092633;28;20481;-81
2024/04/02 01:19:14;;;;;;;0.10;0.10;;;;;;;16.26;62.02;100002.78;5075599;28;20394;-81
2024/04/02 01:21:39;;;;;;;0.10;0.10;;;;;;;16.19;61.97;99988.59;5075346;28;20516;-81
2024/04/02 01:24:05;;;;;;;0.10;0.10;;;;;;;16.30;62.20;100013.78;5074995;28;20490;-81
2024/04/02 01:26:31;;;;;;;0.13;0.13;;;;;;;16.29;62.47;100012.13;5058937;28;20035;-81
2024/04/02 01:29:01;;;;;;;0.10;0.10;;;;;;;16.28;62.27;100013.94;5092023;28;20028;-81
2024/04/02 01:31:30;;;;;;;0.10;0.10;;;;;;;16.33;61.86;100024.84;5092364;28;20205;-80
2024/04/02 01:33:56;;;;;;;0.20;0.20;;;;;;;16.27;62.92;100020.09;5058790;28;20051;-81
2024/04/02 01:36:21;;;;;;;0.10;0.10;;;;;;;16.30;62.26;100032.91;5075154;28;20164;-81
2024/04/02 01:38:47;;;;;;;0.10;0.10;;;;;;;16.25;61.32;100047.28;5091848;28;20023;-80
2024/04/02 01:41:12;;;;;;;0.10;0.10;;;;;;;16.18;60.50;100033.06;5058444;28;20028;-81
2024/04/02 01:43:38;;;;;;;0.10;0.10;;;;;;;15.92;60.23;100033.41;5075030;28;20068;-81
2024/04/02 01:46:04;;;;;;;0.10;0.10;;;;;;;15.71;59.99;100038.56;5075261;28;20026;-81
2024/04/02 01:48:29;;;;;;;0.10;0.10;;;;;;;15.55;59.15;100030.28;5091608;28;20035;-80
2024/04/02 01:50:55;;;;;;;0.10;0.10;;;;;;;15.40;59.54;100026.25;5091867;28;20078;-81
2024/04/02 01:53:20;;;;;;;0.20;0.20;;;;;;;15.35;59.45;100020.59;5092658;28;20054;-81
2024/04/02 01:55:46;;;;;;;0.13;0.13;;;;;;;15.36;60.06;100036.09;5058285;28;20409;-81
2024/04/02 01:58:11;;;;;;;0.10;0.10;;;;;;;15.22;60.71;100036.31;5058181;28;20531;-81
2024/04/02 02:00:37;;;;;;;0.10;0.10;;;;;;;15.18;61.19;100027.94;5075052;28;20027;-81
2024/04/02 02:03:03;;;;;;;0.10;0.10;;;;;;;15.23;61.33;100037.97;5092537;28;20028;-81
2024/04/02 02:05:29;;;;;;;0.20;0.20;;;;;;;15.10;61.33;100032.91;5074966;28;20078;-80
2024/04/02 02:07:55;;;;;;;0.10;0.10;;;;;;;15.15;62.00;100063.81;5074480;28;20501;-81
2024/04/02 02:10:20;;;;;;;0.10;0.10;;;;;;;15.16;62.33;100068.09;5074539;28;20093;-81
2024/04/02 02:12:46;;;;;;;0.10;0.10;;;;;;;15.22;62.68;100067.59;5091226;28;20024;-81
2024/04/02 02:15:11;;;;;;;0.10;0.10;;;;;;;15.20;63.24;100069.50;5074871;28;20028;-81
2024/04/02 02:17:37;;;;;;;0.10;0.10;;;;;;;15.10;63.35;100052.91;5074381;28;20054;-81
2024/04/02 02:20:04;;;;;;;0.20;0.20;;;;;;;15.26;63.58;100089.06;5091192;28;20035;-80
2024/04/02 02:22:30;;;;;;;0.10;0.10;;;;;;;15.05;63.58;100094.97;5090231;28;20024;-80
2024/04/02 02:24:55;;;;;;;0.10;0.10;;;;;;;15.17;63.74;100112.25;5092126;28;20055;-81
2024/04/02 02:27:21;;;;;;;0.10;0.10;;;;;;;15.05;63.98;100133.22;5091097;28;20031;-81
2024/04/02 02:29:46;;;;;;;0.10;0.10;;;;;;;15.04;64.07;100121.94;5074315;28;20093;-81
2024/04/02 02:32:12;;;;;;;0.10;0.10;;;;;;;15.03;63.65;100116.84;5057644;28;20024;-80
2024/04/02 02:34:39;;;;;;;0.10;0.10;;;;;;;15.11;62.95;100130.13;5091145;28;20160;-81
2024/04/02 02:37:04;;;;;;;0.20;0.20;;;;;;;14.99;63.48;100142.31;5090375;28;20028;-81
2024/04/02 02:39:30;;;;;;;0.10;0.10;;;;;;;14.78;59.60;100168.16;5074043;28;20409;-80
2024/04/02 02:41:55;;;;;;;0.13;0.13;;;;;;;14.70;58.38;100169.66;5090922;28;20405;-81
2024/04/02 02:44:21;;;;;;;0.10;0.10;;;;;;;14.65;57.79;100180.44;5074110;28;20032;-81
2024/04/02 02:46:46;;;;;;;0.10;0.10;;;;;;;14.74;57.68;100173.69;5090812;28;20032;-81
2024/04/02 02:49:12;;;;;;;0.10;0.10;;;;;;;14.83;57.26;100163.44;5073798;28;20024;-81
2024/04/02 02:51:37;;;;;;;0.10;0.10;;;;;;;14.83;54.73;100155.63;5090449;28;20036;-81
2024/04/02 02:54:03;;;;;;;0.10;0.10;;;;;;;14.84;55.30;100172.91;5073709;28;20023;-80
2024/04/02 02:56:28;;;;;;;0.10;0.10;;;;;;;14.67;55.56;100138.66;5091006;28;20051;-81
2024/04/02 02:58:54;;;;;;;0.10;0.10;;;;;;;14.92;55.48;100180.97;5091619;28;20485;-81
2024/04/02 03:01:20;;;;;;;0.20;0.20;;;;;;;14.82;54.58;100173.97;5090587;28;20024;-81
2024/04/02 03:03:49;;;;;;;0.10;0.10;;;;;;;14.82;52.33;100180.00;5090321;28;20506;-80
2024/04/02 03:06:15;;;;;;;0.10;0.10;;;;;;;15.01;50.98;100166.44;5090026;28;20032;-82
2024/04/02 03:08:41;;;;;;;0.20;0.20;;;;;;;15.73;47.21;100179.25;5056072;28;20080;-85
2024/04/02 03:11:07;;;;;;;0.10;0.10;;;;;;;16.85;42.43;100184.25;5038077;28;20028;-81
2024/04/02 03:13:33;;;;;;;0.10;0.10;;;;;;;17.36;41.18;100186.94;5053158;28;20029;-81
2024/04/02 03:15:59;;;;;;;0.10;0.10;;;;;;;17.63;41.43;100178.56;5036530;28;20024;-81
2024/04/02 03:18:25;;;;;;;0.20;0.20;;;;;;;17.88;39.94;100176.47;5069902;28;20523;-81
2024/04/02 03:20:50;;;;;;;0.10;0.10;;;;;;;18.04;40.60;100171.56;5036177;28;20024;-81
2024/04/02 03:23:16;;;;;;;0.10;0.10;;;;;;;18.32;39.34;100196.16;5069251;28;20028;-81
2024/04/02 03:25:42;;;;;;;0.20;0.20;;;;;;;18.46;38.49;100193.13;5052931;28;20056;-81
2024/04/02 03:28:07;;;;;;;0.20;0.20;;;;;;;18.44;37.37;100194.25;5069266;28;20024;-81
2024/04/02 03:30:33;;;;;;;0.20;0.20;;;;;;;18.42;37.78;100202.25;5070805;28;20032;-81
2024/04/02 03:32:58;;;;;;;0.20;0.20;;;;;;;18.45;38.27;100207.19;5070801;28;20039;-85
2024/04/02 03:35:24;;;;;;;0.20;0.20;;;;;;;18.53;37.92;100228.31;5068594;28;20028;-87
2024/04/02 03:37:49;;;;;;;0.20;0.20;;;;;;;18.59;36.71;100204.19;5069874;28;20033;-89
2024/04/02 03:40:15;;;;;;;0.10;0.10;;;;;;;19.05;36.17;100242.00;5070080;28;20033;-89
2024/04/02 03:42:41;;;;;;;0.20;0.20;;;;;;;19.15;35.59;100226.28;5069730;28;20509;-88
2024/04/02 03:45:07;;;;;;;0.10;0.10;;;;;;;19.20;37.03;100256.38;5069631;28;20037;-86
2024/04/02 03:47:33;;;;;;;0.10;0.10;;;;;;;19.27;36.93;100225.19;5069799;28;20028;-88
2024/04/02 03:49:59;;;;;;;0.10;0.10;;;;;;;19.36;36.23;100233.97;5068789;28;20040;-87
2024/04/02 03:52:24;;;;;;;0.10;0.10;;;;;;;19.47;36.36;100246.97;5052498;28;20032;-89
2024/04/02 03:54:50;;;;;;;0.20;0.20;;;;;;;19.48;36.13;100235.50;5052901;28;20024;-87
2024/04/02 03:57:15;;;;;;;0.10;0.10;;;;;;;19.83;35.88;100273.41;5069407;28;20036;-88
2024/04/02 03:59:41;;;;;;;0.10;0.10;;;;;;;19.97;35.15;100265.91;5070603;28;20024;-88
2024/04/02 04:02:06;;;;;;;0.20;0.20;;;;;;;20.13;35.38;100267.88;5035846;28;20041;-87
2024/04/02 04:04:32;;;;;;;0.10;0.10;;;;;;;20.27;35.78;100275.31;5035692;28;20071;-89
2024/04/02 04:06:57;;;;;;;0.20;0.20;;;;;;;20.49;37.29;100275.91;5052796;28;20078;-86
2024/04/02 04:09:25;;;;;;;0.20;0.20;;;;;;;20.72;38.56;100282.38;5069238;28;20105;-86
2024/04/02 04:11:51;;;;;;;0.10;0.10;;;;;;;20.81;39.42;100270.97;5053099;28;20504;-88
2024/04/02 04:14:17;;;;;;;0.10;0.10;;;;;;;20.95;39.07;100281.97;5052547;28;20032;-89
2024/04/02 04:16:42;;;;;;;0.10;0.10;;;;;;;21.06;38.73;100284.38;5052849;28;20040;-89
2024/04/02 04:19:08;;;;;;;0.17;0.17;;;;;;;21.22;38.81;100313.44;5052100;28;20139;-86
2024/04/02 04:21:34;;;;;;;0.10;0.10;;;;;;;21.37;38.57;100334.81;5059498;28;20032;-86
2024/04/02 04:23:59;;;;;;;0.10;0.10;;;;;;;21.05;37.17;100335.31;5035413;28;20479;-86
2024/04/02 04:26:25;;;;;;;0.10;0.10;;;;;;;21.06;37.99;100358.00;5069834;28;20482;-87
2024/04/02 04:28:50;;;;;;;0.10;0.10;;;;;;;20.79;38.46;100370.22;5079715;28;20039;-91
2024/04/02 04:31:16;;;;;;;0.10;0.10;;;;;;;20.48;39.42;100387.25;5081215;28;20028;-89
2024/04/02 04:33:41;;;;;;;0.10;0.10;;;;;;;20.24;41.17;100377.19;5075630;28;20497;-88
2024/04/02 04:36:07;;;;;;;0.20;0.20;;;;;;;19.97;42.37;100412.94;5070175;28;20471;-88
2024/04/02 04:38:33;;;;;;;0.10;0.10;;;;;;;19.81;43.50;100406.59;5073262;28;20516;-90
2024/04/02 04:40:59;;;;;;;0.10;0.10;;;;;;;19.59;45.02;100413.78;5076317;28;20067;-89
2024/04/02 04:43:24;;;;;;;0.10;0.10;;;;;;;19.39;46.71;100426.03;5089209;28;20070;-90
2024/04/02 04:45:54;;;;;;;0.10;0.10;;;;;;;19.28;47.97;100441.06;5077259;28;20032;-90
2024/04/02 04:48:20;;;;;;;0.10;0.10;;;;;;;19.16;48.75;100424.59;5057780;28;20052;-87
2024/04/02 04:50:54;;;;;;;0.10;0.10;;;;;;;19.25;49.51;100430.81;5079423;28;20031;-89
2024/04/02 04:53:20;;;;;;;0.20;0.20;;;;;;;19.06;48.66;100406.22;5094510;28;20028;-87
2024/04/02 04:55:45;;;;;;;0.10;0.10;;;;;;;19.12;48.88;100426.66;5094321;28;20421;-87
2024/04/02 04:58:11;;;;;;;0.10;0.10;;;;;;;19.12;49.91;100413.56;5064063;28;20379;-85
2024/04/02 05:00:37;;;;;;;0.10;0.10;;;;;;;19.04;48.42;100404.69;5093073;28;20039;-89
2024/04/02 05:03:02;;;;;;;0.20;0.20;;;;;;;19.10;48.00;100420.72;5088171;28;20082;-86
2024/04/02 05:05:28;;;;;;;0.10;0.10;;;;;;;18.97;49.38;100412.25;5081296;28;20032;-87
2024/04/02 05:08:13;;;;;;;0.10;0.10;;;;;;;18.94;49.10;100430.88;5088885;28;20027;-88
2024/04/02 05:10:39;;;;;;;0.10;0.10;;;;;;;18.81;49.37;100436.38;5068821;28;20039;-86
2024/04/02 05:13:06;;;;;;;0.10;0.10;;;;;;;18.75;50.21;100447.38;5070953;28;20039;-88
2024/04/02 05:15:32;;;;;;;0.10;0.10;;;;;;;18.61;50.29;100429.38;5070885;28;20044;-88
2024/04/02 05:17:57;;;;;;;0.20;0.20;;;;;;;18.76;50.22;100445.56;5082980;28;20039;-89
2024/04/02 05:20:23;;;;;;;0.10;0.10;;;;;;;18.76;49.63;100456.88;5087323;28;20084;-93
2024/04/02 05:22:48;;;;;;;0.10;0.10;;;;;;;18.80;49.90;100460.09;5064028;28;20032;-92
2024/04/02 05:25:14;;;;;;;0.10;0.10;;;;;;;18.54;51.17;100431.66;5071544;28;20733;-85
2024/04/02 05:27:40;;;;;;;0.10;0.10;;;;;;;18.56;51.99;100471.66;5084265;28;20476;-90
2024/04/02 05:30:06;;;;;;;0.10;0.10;;;;;;;18.58;53.99;100466.28;5059206;28;20028;-90
2024/04/02 05:32:31;;;;;;;0.20;0.20;;;;;;;18.62;54.34;100473.78;5079848;28;20050;-91
2024/04/02 05:34:57;;;;;;;0.10;0.10;;;;;;;18.54;54.75;100463.09;5076886;28;20506;-85
2024/04/02 05:37:22;;;;;;;0.10;0.10;;;;;;;18.43;55.02;100465.81;5074601;28;20036;-89
2024/04/02 05:39:51;;;;;;;0.10;0.10;;;;;;;18.35;56.55;100483.94;5059329;28;20021;-90
2024/04/02 05:42:16;;;;;;;0.10;0.10;;;;;;;18.32;56.93;100484.22;5073168;28;20028;-84
2024/04/02 05:44:43;;;;;;;0.10;0.10;;;;;;;18.35;56.41;100502.28;5071799;28;20024;-83
2024/04/02 05:47:08;;;;;;;0.20;0.20;;;;;;;18.25;55.14;100493.53;5069797;28;20031;-85
2024/04/02 05:49:34;;;;;;;0.10;0.10;;;;;;;18.30;57.44;100514.94;5075616;28;20115;-92
2024/04/02 05:51:59;;;;;;;0.10;0.10;;;;;;;18.36;56.85;100522.28;5078098;28;20063;-92
2024/04/02 05:54:25;;;;;;;0.10;0.10;;;;;;;18.28;55.41;100506.34;5078945;28;20060;-93
2024/04/02 05:56:50;;;;;;;0.10;0.10;;;;;;;18.30;54.21;100520.19;5049018;28;20039;-89
2024/04/02 05:59:16;;;;;;;0.10;0.10;;;;;;;18.13;52.26;100489.31;5066543;28;20040;-88
2024/04/02 06:01:42;;;;;;;0.20;0.20;;;;;;;18.31;53.89;100511.34;5086807;28;20089;-91
2024/04/02 06:04:08;;;;;;;0.20;0.20;;;;;;;18.40;52.83;100517.63;5076153;28;20040;-86
2024/04/02 06:06:33;;;;;;;0.20;0.20;;;;;;;18.54;53.31;100523.34;5090762;28;20077;-87
2024/04/02 06:08:59;;;;;;;0.20;0.20;;;;;;;18.56;52.16;100523.22;5057594;28;20032;-86
2024/04/02 06:11:25;;;;;;;0.20;0.20;;;;;;;18.82;51.96;100513.22;5088006;28;20486;-87
2024/04/02 06:13:51;;;;;;;0.20;0.20;;;;;;;18.86;50.94;100525.06;5073655;28;20043;-89
2024/04/02 06:16:16;;;;;;;0.20;0.20;;;;;;;18.72;50.38;100476.47;5090746;28;20032;-86
2024/04/02 06:18:42;;;;;;;0.20;0.20;;;;;;;18.89;49.67;100506.50;5090300;28;20028;-86
2024/04/02 06:21:08;;;;;;;0.20;0.20;;;;;;;19.18;48.32;100512.69;5093848;28;20513;-93
2024/04/02 06:23:33;;;;;;;0.10;0.10;;;;;;;19.45;46.74;100519.06;5093440;28;20036;-92
2024/04/02 06:25:59;;;;;;;0.10;0.10;;;;;;;19.55;45.81;100504.19;5051023;28;20052;-89
2024/04/02 06:28:24;;;;;;;0.20;0.20;;;;;;;19.79;45.67;100500.41;5075494;28;20405;-91
2024/04/02 06:30:50;;;;;;;0.10;0.10;;;;;;;19.98;44.57;100513.53;5085076;28;20060;-90
2024/04/02 06:33:15;;;;;;;0.10;0.10;;;;;;;20.05;43.97;100515.44;5074177;28;20024;-87
2024/04/02 06:35:41;;;;;;;0.17;0.17;;;;;;;20.20;43.27;100525.53;5070507;28;20032;-92
2024/04/02 06:38:07;;;;;;;0.20;0.20;;;;;;;20.21;42.53;100501.75;5059267;28;20029;-90
2024/04/02 06:40:32;;;;;;;0.10;0.10;;;;;;;20.42;40.87;100532.28;5070826;28;20032;-87
2024/04/02 06:42:58;;;;;;;0.10;0.10;;;;;;;20.38;40.94;100528.28;5068772;28;20036;-86
2024/04/02 06:45:24;;;;;;;0.20;0.20;;;;;;;20.42;41.14;100537.53;5071922;28;20024;-92
2024/04/02 06:47:53;;;;;;;0.20;0.20;;;;;;;20.57;39.69;100538.81;5081472;28;20024;-94
2024/04/02 06:50:20;;;;;;;0.10;0.10;;;;;;;20.73;38.61;100549.53;5039162;28;20043;-84
2024/04/02 06:52:45;;;;;;;0.20;0.20;;;;;;;20.70;38.18;100536.69;5053704;28;20028;-89
2024/04/02 06:55:11;;;;;;;0.20;0.20;;;;;;;20.91;36.80;100558.34;5069613;28;20028;-88
2024/04/02 06:57:37;;;;;;;0.20;0.20;;;;;;;21.12;37.27;100562.56;5073064;28;20535;-90
2024/04/02 07:00:06;;;;;;;0.20;0.20;;;;;;;21.11;35.94;100555.66;5091060;28;20092;-89
2024/04/02 07:02:32;;;;;;;0.10;0.10;;;;;;;21.00;35.69;100547.94;5075953;28;20414;-84
2024/04/02 07:04:58;;;;;;;0.13;0.13;;;;;;;21.18;35.61;100572.53;5068599;28;20028;-89
2024/04/02 07:07:24;;;;;;;0.20;0.20;;;;;;;21.38;35.72;100589.09;5064777;28;20186;-84
2024/04/02 07:09:49;;;;;;;0.10;0.10;;;;;;;21.44;34.70;100615.66;5088769;28;20482;-82
2024/04/02 07:12:15;;;;;;;0.20;0.20;;;;;;;21.74;34.93;100608.44;5090251;28;20546;-93
2024/04/02 07:14:40;;;;;;;0.20;0.20;;;;;;;21.76;42.30;100614.38;5077439;28;20032;-89
2024/04/02 07:17:06;;;;;;;0.10;0.10;;;;;;;21.67;43.70;100605.56;5089787;28;20061;-85
2024/04/02 07:19:32;;;;;;;0.20;0.20;;;;;;;21.43;44.38;100624.53;5077048;28;20021;-88
2024/04/02 07:21:57;;;;;;;0.10;0.10;;;;;;;21.08;44.14;100617.28;5069920;28;20044;-92
2024/04/02 07:24:23;;;;;;;0.17;0.17;;;;;;;20.87;43.96;100612.22;5052369;28;20041;-86
2024/04/02 07:26:48;;;;;;;0.10;0.10;;;;;;;20.89;44.40;100631.28;5063260;28;20040;-87
2024/04/02 07:29:14;;;;;;;0.10;0.10;;;;;;;20.62;42.93;100631.19;5087705;28;20398;-92
2024/04/02 07:31:39;;;;;;;0.20;0.20;;;;;;;20.46;41.68;100634.41;5089325;28;20478;-89
2024/04/02 07:34:05;;;;;;;0.15;0.15;;;;;;;20.33;41.34;100654.81;5082520;28;20032;-92
2024/04/02 07:36:30;;;;;;;0.20;0.20;;;;;;;20.04;40.74;100639.00;5075804;28;20032;-90
2024/04/02 07:38:56;;;;;;;0.10;0.10;;;;;;;19.99;41.69;100635.97;5091154;28;20028;-90
2024/04/02 07:41:21;;;;;;;0.10;0.10;;;;;;;20.08;40.90;100656.16;5088574;28;20054;-90
2024/04/02 07:43:47;;;;;;;0.20;0.20;;;;;;;19.90;41.19;100657.78;5088819;28;20558;-90
2024/04/02 07:46:13;;;;;;;0.10;0.10;;;;;;;20.04;41.23;100670.50;5090163;28;20040;-85
2024/04/02 07:48:38;;;;;;;0.10;0.10;;;;;;;19.80;40.37;100656.91;5085943;28;20028;-85
2024/04/02 07:51:08;;;;;;;0.20;0.20;;;;;;;20.05;39.36;100678.25;5068098;28;20024;-92
2024/04/02 07:53:34;;;;;;;0.20;0.20;;;;;;;20.41;39.51;100688.28;5055795;28;20021;-90
2024/04/02 07:56:00;;;;;;;0.20;0.20;;;;;;;20.56;38.16;100692.22;5057976;28;20571;-90
2024/04/02 07:58:25;;;;;;;0.20;0.20;;;;;;;20.60;36.80;100704.09;5077295;28;20122;-91
2024/04/02 08:00:51;;;;;;;0.20;0.20;;;;;;;20.45;37.02;100687.06;5071837;28;20559;-93
2024/04/02 08:03:16;;;;;;;0.20;0.20;;;;;;;20.63;36.29;100719.59;5091939;28;20510;-92
2024/04/02 08:05:42;;;;;;;0.20;0.20;;;;;;;20.53;36.49;100714.31;5072728;28;20059;-92
2024/04/02 08:08:08;;;;;;;0.20;0.20;;;;;;;20.71;35.92;100726.78;5088953;28;20397;-90
2024/04/02 08:10:33;;;;;;;0.20;0.20;;;;;;;20.71;35.79;100708.38;5082103;28;20090;-87
2024/04/02 08:12:59;;;;;;;0.15;0.15;;;;;;;20.55;36.15;100716.81;5041998;28;20039;-88
2024/04/02 08:15:24;;;;;;;0.20;0.20;;;;;;;20.58;37.26;100704.25;5069827;28;20032;-92
2024/04/02 08:17:50;;;;;;;0.17;0.17;;;;;;;20.72;36.15;100704.78;5068350;28;20021;-87
2024/04/02 08:20:15;;;;;;;0.20;0.20;;;;;;;20.57;35.69;100699.13;5082432;28;20028;-89
2024/04/02 08:22:41;;;;;;;0.20;0.20;;;;;;;20.70;35.34;100698.84;5086083;28;21157;-88
2024/04/02 08:25:07;;;;;;;0.20;0.20;;;;;;;20.85;33.92;100729.84;5093906;28;20048;-88
2024/04/02 08:27:33;;;;;;;0.20;0.20;;;;;;;20.90;33.17;100718.91;5074243;28;20024;-90
2024/04/02 08:29:59;;;;;;;0.20;0.20;;;;;;;20.99;33.21;100722.50;5094126;28;20051;-92
2024/04/02 08:32:24;;;;;;;0.20;0.20;;;;;;;21.13;31.91;100722.88;5094125;28;20047;-85
2024/04/02 08:34:50;;;;;;;0.20;0.20;;;;;;;21.01;31.61;100726.63;5073739;28;20092;-90
2024/04/02 08:37:16;;;;;;;0.20;0.20;;;;;;;20.97;32.99;100727.91;5055003;28;20178;-90
2024/04/02 08:39:41;;;;;;;0.20;0.20;;;;;;;20.92;32.00;100719.59;5082378;28;20082;-91
2024/04/02 08:42:07;;;;;;;0.20;0.20;;;;;;;21.02;31.22;100727.47;5077338;28;20072;-88
2024/04/02 08:44:34;;;;;;;0.20;0.20;;;;;;;20.99;29.45;100725.13;5074226;28;20024;-89
2024/04/02 08:47:00;;;;;;;0.20;0.20;;;;;;;21.27;30.53;100719.03;5075776;28;20552;-88
2024/04/02 08:49:25;;;;;;;0.15;0.15;;;;;;;21.19;29.42;100739.91;5075070;28;20035;-90
2024/04/02 08:51:51;;;;;;;0.20;0.20;;;;;;;21.16;28.38;100737.56;5092541;28;20474;-92
2024/04/02 08:54:17;;;;;;;0.20;0.20;;;;;;;21.21;27.45;100735.34;5092709;28;20455;-90
2024/04/02 08:56:42;;;;;;;0.20;0.20;;;;;;;21.30;28.18;100726.63;5091206;28;20032;-89
2024/04/02 08:59:11;;;;;;;0.20;0.20;;;;;;;21.53;28.68;100731.56;5091725;28;20557;-86
2024/04/02 09:01:37;;;;;;;0.20;0.20;;;;;;;21.38;28.75;100736.47;5086804;28;20540;-88
2024/04/02 09:04:02;;;;;;;0.20;0.20;;;;;;;21.77;28.94;100732.72;5055127;28;20028;-82
2024/04/02 09:06:28;;;;;;;0.20;0.20;;;;;;;21.98;28.89;100729.88;5087203;28;20020;-88
2024/04/02 09:08:56;;;;;;;0.20;0.20;;;;;;;21.96;28.31;100726.56;5092108;28;20038;-87
2024/04/02 09:11:22;;;;;;;0.20;0.20;;;;;;;21.95;28.34;100729.34;5073843;28;20452;-85
2024/04/02 09:13:48;;;;;;;0.17;0.17;;;;;;;21.98;28.08;100721.97;5072586;28;20103;-87
2024/04/02 09:16:14;;;;;;;0.20;0.20;;;;;;;22.02;28.42;100736.53;5054595;28;20128;-91
2024/04/02 09:18:45;;;;;;;0.10;0.10;;;;;;;21.88;28.62;100731.72;5074604;28;20077;-84
2024/04/02 09:21:11;;;;;;;0.20;0.20;;;;;;;22.00;27.76;100727.06;5092850;28;20077;-88
2024/04/02 09:23:37;;;;;;;0.20;0.20;;;;;;;21.81;28.36;100728.00;5070835;28;20021;-86
2024/04/02 09:26:03;;;;;;;0.20;0.20;;;;;;;22.09;28.80;100720.13;5055237;28;20105;-86
2024/04/02 09:28:28;;;;;;;0.20;0.20;;;;;;;22.17;27.33;100707.88;5084871;28;20029;-88
2024/04/02 09:30:54;;;;;;;0.20;0.20;;;;;;;22.30;27.64;100715.44;5084059;28;20033;-89
2024/04/02 09:33:19;;;;;;;0.20;0.20;;;;;;;22.32;28.25;100713.50;5075160;28;20031;-85
2024/04/02 09:36:11;;;;;;;0.20;0.20;;;;;;;22.53;26.91;100719.31;5041762;28;20020;-86
2024/04/02 09:38:36;;;;;;;0.20;0.20;;;;;;;22.54;27.24;100718.34;5079581;28;20486;-85
2024/04/02 09:41:03;;;;;;;0.20;0.20;;;;;;;22.66;26.51;100723.38;5068446;28;20036;-92
2024/04/02 09:43:33;;;;;;;0.10;0.10;;;;;;;22.61;27.07;100708.84;5075815;28;20043;-92
2024/04/02 09:45:59;;;;;;;0.20;0.20;;;;;;;22.43;27.95;100730.91;5070439;28;20036;-89
2024/04/02 09:48:26;;;;;;;0.20;0.20;;;;;;;22.48;28.17;100721.56;5086489;28;20024;-87
2024/04/02 09:50:52;;;;;;;0.20;0.20;;;;;;;22.47;27.13;100708.53;5073949;28;20031;-86
2024/04/02 09:53:19;;;;;;;0.20;0.20;;;;;;;22.69;27.64;100720.44;5072948;28;20028;-88
2024/04/02 09:55:44;;;;;;;0.20;0.20;;;;;;;22.72;26.99;100714.88;5072694;28;20028;-85
2024/04/02 09:58:10;;;;;;;0.20;0.20;;;;;;;22.59;26.77;100713.41;5083703;28;20119;-90
2024/04/02 10:00:35;;;;;;;0.20;0.20;;;;;;;22.72;26.84;100728.06;5071238;28;20032;-85
2024/04/02 10:03:01;;;;;;;0.20;0.20;;;;;;;22.67;27.39;100725.03;5079648;28;20039;-91
2024/04/02 10:05:26;;;;;;;0.20;0.20;;;;;;;22.82;27.12;100719.09;5056588;28;20082;-90
2024/04/02 10:07:52;;;;;;;0.20;0.20;;;;;;;22.73;28.54;100683.06;5069718;28;20028;-89
2024/04/02 10:10:18;;;;;;;0.20;0.20;;;;;;;22.73;25.88;100696.25;5085285;28;20086;-88
2024/04/02 10:12:50;;;;;;;0.20;0.20;;;;;;;22.84;27.13;100709.25;5079269;28;20061;-93
2024/04/02 10:15:17;;;;;;;0.20;0.20;;;;;;;23.01;26.18;100701.44;5077842;28;20499;-87
2024/04/02 10:17:43;;;;;;;0.20;0.20;;;;;;;23.05;25.36;100702.78;5046653;28;20067;-90
2024/04/02 10:20:22;;;;;;;0.20;0.20;;;;;;;23.07;26.43;100688.47;5090186;28;20428;-90
2024/04/02 10:22:49;;;;;;;0.20;0.20;;;;;;;23.35;25.87;100698.88;5061575;28;20031;-88
2024/04/02 10:25:16;;;;;;;0.20;0.20;;;;;;;23.44;25.73;100688.19;5053587;28;20048;-92
2024/04/02 10:27:44;;;;;;;0.20;0.20;;;;;;;23.41;25.42;100698.25;5072980;28;20513;-84
2024/04/02 10:30:17;;;;;;;0.10;0.10;;;;;;;23.47;25.21;100687.06;5055143;28;20477;-85
2024/04/02 10:32:43;;;;;;;0.20;0.20;;;;;;;22.89;26.31;100679.75;5071264;28;20111;-83
2024/04/02 10:35:18;;;;;;;0.20;0.20;;;;;;;23.17;26.47;100691.00;5087263;28;20028;-79
2024/04/02 10:37:49;;;;;;;0.20;0.20;;;;;;;23.05;25.62;100698.34;5064936;28;20028;-89
2024/04/02 10:40:15;;;;;;;0.20;0.20;;;;;;;22.85;26.60;100695.06;5060010;28;20493;-85
2024/04/02 10:42:42;;;;;;;0.20;0.20;;;;;;;23.19;25.99;100697.78;5083951;28;20151;-86
2024/04/02 10:45:08;;;;;;;0.20;0.20;;;;;;;23.23;25.74;100705.41;5072057;28;20028;-85
2024/04/02 10:47:35;;;;;;;0.20;0.20;;;;;;;23.00;25.73;100708.53;5088995;28;20036;-89
2024/04/02 10:50:01;;;;;;;0.20;0.20;;;;;;;23.14;25.69;100702.69;5089788;28;20413;-87
2024/04/02 10:52:26;;;;;;;0.20;0.20;;;;;;;23.26;26.11;100705.09;5090127;28;20024;-84
2024/04/02 10:54:52;;;;;;;0.20;0.20;;;;;;;23.42;24.21;100705.19;5089971;28;20615;-90
2024/04/02 10:57:17;;;;;;;0.20;0.20;;;;;;;23.09;25.03;100699.69;5085224;28;20455;-84
2024/04/02 10:59:46;;;;;;;0.20;0.20;;;;;;;23.00;25.41;100695.31;5067988;28;20188;-84
2024/04/02 11:02:17;;;;;;;0.20;0.20;;;;;;;23.08;25.35;100697.19;5072808;28;20031;-85
2024/04/02 11:04:42;;;;;;;0.20;0.20;;;;;;;23.13;25.31;100700.22;5055739;28;20016;-86
2024/04/02 11:07:14;;;;;;;0.20;0.20;;;;;;;23.47;25.26;100714.28;5070615;28;20024;-85
2024/04/02 11:09:40;;;;;;;0.20;0.20;;;;;;;23.46;23.85;100690.69;5081578;28;20036;-91
2024/04/02 11:12:07;;;;;;;0.20;0.20;;;;;;;23.43;24.80;100688.38;5070121;28;20039;-85
2024/04/02 11:14:33;;;;;;;0.20;0.20;;;;;;;23.35;24.35;100673.31;5067327;28;20111;-85
2024/04/02 11:16:59;;;;;;;0.20;0.20;;;;;;;23.65;23.83;100676.44;5063972;28;20064;-86
2024/04/02 11:19:25;;;;;;;0.20;0.20;;;;;;;23.85;24.13;100674.38;5071499;28;20028;-87